createdAt,value
2019-01-10T00:02:04.625Z,1.70
2019-01-10T00:04:32.875Z,1.40
2019-01-10T00:07:01.160Z,1.20
2019-01-10T00:09:29.420Z,1.43
2019-01-10T00:11:57.702Z,1.30
2019-01-10T00:14:25.966Z,1.73
2019-01-10T00:16:54.223Z,1.10
2019-01-10T00:19:22.497Z,1.30
2019-01-10T00:21:50.780Z,1.25
2019-01-10T00:24:19.033Z,2.00
2019-01-10T00:26:47.280Z,1.40
2019-01-10T00:29:15.574Z,1.67
2019-01-10T00:31:44.469Z,1.72
2019-01-10T00:34:12.719Z,2.23
2019-01-10T00:36:41.061Z,2.10
2019-01-10T00:39:09.323Z,1.90
2019-01-10T00:41:37.566Z,1.70
2019-01-10T00:44:05.825Z,1.98
2019-01-10T00:46:34.078Z,1.35
2019-01-10T00:49:02.359Z,1.50
2019-01-10T00:51:30.708Z,1.67
2019-01-10T00:53:58.968Z,1.93
2019-01-10T00:56:27.247Z,1.60
2019-01-10T00:58:55.524Z,1.27
2019-01-10T01:01:23.806Z,1.30
2019-01-10T01:03:52.147Z,2.80
2019-01-10T01:06:20.429Z,1.70
2019-01-10T01:08:48.689Z,1.30
2019-01-10T01:11:16.978Z,1.30
2019-01-10T01:13:45.270Z,2.24
2019-01-10T01:16:13.536Z,1.30
2019-01-10T01:18:41.821Z,1.50
2019-01-10T01:21:10.076Z,1.03
2019-01-10T01:23:39.313Z,1.70
2019-01-10T01:26:07.582Z,1.17
2019-01-10T01:28:36.083Z,1.27
2019-01-10T01:31:04.431Z,1.23
2019-01-10T01:33:32.698Z,1.63
2019-01-10T01:36:00.943Z,1.77
2019-01-10T01:38:29.226Z,1.30
2019-01-10T01:40:59.464Z,1.60
2019-01-10T01:43:27.472Z,1.25
2019-01-10T01:45:55.732Z,1.40
2019-01-10T01:48:23.989Z,1.30
2019-01-10T01:50:52.255Z,1.63
2019-01-10T01:53:20.507Z,1.47
2019-01-10T01:55:48.771Z,1.47
2019-01-10T01:58:17.051Z,1.00
2019-01-10T02:00:45.335Z,1.77
2019-01-10T02:03:13.610Z,1.17
2019-01-10T02:05:41.881Z,1.47
2019-01-10T02:08:10.156Z,1.30
2019-01-10T02:10:38.422Z,1.40
2019-01-10T02:13:06.762Z,1.10
2019-01-10T02:15:35.037Z,1.20
2019-01-10T02:18:03.306Z,1.30
2019-01-10T02:20:31.577Z,1.70
2019-01-10T02:22:59.905Z,1.20
2019-01-10T02:25:28.166Z,1.30
2019-01-10T02:27:56.458Z,1.62
2019-01-10T02:30:25.153Z,2.12
2019-01-10T02:32:53.422Z,1.27
2019-01-10T02:35:21.696Z,2.03
2019-01-10T02:37:49.969Z,1.13
2019-01-10T02:40:18.413Z,1.00
2019-01-10T02:42:46.718Z,2.03
2019-01-10T02:45:54.993Z,1.10
2019-01-10T02:48:23.250Z,1.20
2019-01-10T02:50:51.524Z,1.40
2019-01-10T02:53:19.772Z,1.27
2019-01-10T02:55:48.067Z,1.33
2019-01-10T02:58:16.347Z,1.13
2019-01-10T03:00:44.630Z,1.13
2019-01-10T03:03:12.916Z,1.37
2019-01-10T03:05:41.168Z,1.10
2019-01-10T03:08:09.455Z,1.57
2019-01-10T03:10:37.719Z,1.23
2019-01-10T03:13:06.008Z,1.97
2019-01-10T03:15:34.310Z,1.17
2019-01-10T03:18:15.513Z,2.10
2019-01-10T03:20:43.805Z,1.80
2019-01-10T03:23:12.095Z,1.42
2019-01-10T03:25:40.364Z,1.40
2019-01-10T03:28:08.630Z,1.40
2019-01-10T03:30:36.891Z,1.37
2019-01-10T03:33:05.186Z,1.30
2019-01-10T03:35:34.007Z,1.10
2019-01-10T03:38:02.271Z,1.60
2019-01-10T03:40:30.554Z,2.12
2019-01-10T03:42:58.831Z,2.12
2019-01-10T03:45:27.123Z,1.32
2019-01-10T03:47:55.381Z,1.67
2019-01-10T03:50:23.638Z,1.30
2019-01-10T03:52:51.892Z,3.60
2019-01-10T03:55:20.163Z,1.33
2019-01-10T03:57:48.437Z,1.53
2019-01-10T04:00:56.846Z,1.20
2019-01-10T04:03:25.122Z,1.20
2019-01-10T04:08:46.056Z,1.97
2019-01-10T04:11:16.505Z,1.60
2019-01-10T04:13:44.810Z,2.15
2019-01-10T04:16:13.083Z,1.60
2019-01-10T04:18:41.471Z,1.13
2019-01-10T04:21:16.913Z,1.40
2019-01-10T04:26:18.798Z,1.60
2019-01-10T04:28:47.074Z,1.50
2019-01-10T04:31:15.367Z,2.05
2019-01-10T04:33:44.257Z,2.05
2019-01-10T04:36:12.513Z,1.90
2019-01-10T04:38:40.770Z,2.10
2019-01-10T04:41:09.046Z,1.72
2019-01-10T04:43:37.329Z,1.30
2019-01-10T04:46:05.574Z,2.35
2019-01-10T04:48:33.829Z,1.60
2019-01-10T04:51:02.094Z,1.50
2019-01-10T04:53:30.356Z,1.37
2019-01-10T04:55:58.624Z,2.20
2019-01-10T04:58:26.865Z,2.00
2019-01-10T05:00:55.149Z,1.80
2019-01-10T05:03:23.407Z,1.60
2019-01-10T05:05:51.694Z,1.30
2019-01-10T05:08:19.980Z,1.37
2019-01-10T05:10:48.235Z,1.83
2019-01-10T05:13:16.545Z,1.60
2019-01-10T05:15:44.806Z,1.60
2019-01-10T05:18:13.082Z,1.43
2019-01-10T05:20:41.345Z,1.40
2019-01-10T05:23:10.028Z,1.50
2019-01-10T05:25:38.282Z,1.70
2019-01-10T05:28:06.545Z,1.80
2019-01-10T05:30:34.840Z,1.15
2019-01-10T05:33:03.088Z,1.52
2019-01-10T05:35:31.354Z,1.33
2019-01-10T05:37:59.592Z,1.30
2019-01-10T05:40:27.852Z,1.20
2019-01-10T05:42:56.160Z,1.40
2019-01-10T05:45:43.527Z,1.53
2019-01-10T05:48:11.789Z,1.50
2019-01-10T05:50:40.059Z,1.95
2019-01-10T05:53:08.320Z,1.27
2019-01-10T05:55:36.585Z,1.60
2019-01-10T05:58:04.854Z,1.67
2019-01-10T06:00:33.115Z,1.97
2019-01-10T06:03:01.361Z,1.67
2019-01-10T06:05:29.674Z,1.67
2019-01-10T06:07:57.993Z,2.40
2019-01-10T06:11:06.282Z,2.00
2019-01-10T06:13:34.536Z,1.40
2019-01-10T06:16:02.789Z,2.03
2019-01-10T06:18:31.049Z,1.73
2019-01-10T06:20:59.298Z,1.90
2019-01-10T06:23:27.555Z,1.73
2019-01-10T06:25:55.812Z,2.22
2019-01-10T06:28:24.080Z,1.80
2019-01-10T06:30:52.324Z,1.60
2019-01-10T06:33:20.573Z,1.97
2019-01-10T06:35:48.831Z,1.70
2019-01-10T06:38:17.089Z,1.50
2019-01-10T06:40:45.374Z,1.20
2019-01-10T06:43:13.621Z,2.05
2019-01-10T06:45:41.889Z,2.00
2019-01-10T06:48:10.120Z,1.90
2019-01-10T06:50:39.215Z,1.23
2019-01-10T06:53:08.368Z,1.60
2019-01-10T06:55:36.660Z,1.80
2019-01-10T06:58:04.903Z,2.93
2019-01-10T07:00:33.159Z,1.70
2019-01-10T07:03:01.436Z,1.70
2019-01-10T07:05:29.680Z,2.50
2019-01-10T07:07:57.944Z,1.52
2019-01-10T07:11:00.070Z,2.23
2019-01-10T07:13:28.325Z,2.27
2019-01-10T07:15:56.589Z,1.50
2019-01-10T07:18:24.864Z,1.60
2019-01-10T07:20:53.115Z,2.20
2019-01-10T07:23:21.390Z,2.00
2019-01-10T07:26:29.667Z,1.80
2019-01-10T07:28:57.924Z,2.07
2019-01-10T07:31:45.291Z,2.40
2019-01-10T07:34:13.545Z,1.40
2019-01-10T07:36:41.805Z,2.03
2019-01-10T07:39:10.067Z,2.30
2019-01-10T07:42:18.330Z,2.40
2019-01-10T07:44:46.604Z,2.50
2019-01-10T07:47:14.857Z,2.15
2019-01-10T07:49:43.117Z,2.35
2019-01-10T07:52:11.406Z,2.60
2019-01-10T07:54:39.654Z,3.17
2019-01-10T07:57:07.907Z,3.00
2019-01-10T07:59:36.222Z,3.93
2019-01-10T08:02:04.434Z,3.37
2019-01-10T08:04:32.726Z,6.20
2019-01-10T08:07:01.008Z,3.10
2019-01-10T08:09:29.283Z,4.97
2019-01-10T08:12:00.542Z,4.45
2019-01-10T08:14:27.569Z,3.85
2019-01-10T08:16:55.823Z,6.05
2019-01-10T08:19:24.081Z,5.67
2019-01-10T08:21:52.335Z,6.30
2019-01-10T08:24:20.594Z,6.30
2019-01-10T08:26:48.852Z,5.97
2019-01-10T08:29:17.119Z,6.60
2019-01-10T08:31:45.385Z,6.30
2019-01-10T08:34:13.640Z,8.73
2019-01-10T08:36:41.901Z,5.95
2019-01-10T08:39:10.157Z,6.20
2019-01-10T08:41:38.433Z,6.27
2019-01-10T08:44:06.690Z,6.10
2019-01-10T08:49:09.720Z,6.15
2019-01-10T08:51:38.240Z,6.33
2019-01-10T08:54:06.535Z,6.90
2019-01-10T08:56:34.810Z,6.97
2019-01-10T08:59:03.074Z,5.30
2019-01-10T09:01:31.351Z,5.60
2019-01-10T09:03:59.609Z,6.63
2019-01-10T09:06:27.882Z,7.80
2019-01-10T09:08:56.180Z,5.23
2019-01-10T09:11:24.449Z,5.33
2019-01-10T09:13:52.724Z,7.30
2019-01-10T09:16:20.981Z,6.15
2019-01-10T09:18:49.250Z,5.40
2019-01-10T09:21:17.529Z,7.67
2019-01-10T09:23:45.799Z,7.28
2019-01-10T09:26:14.056Z,5.97
2019-01-10T09:28:43.071Z,6.20
2019-01-10T09:31:11.336Z,7.15
2019-01-10T09:33:39.808Z,6.20
2019-01-10T09:36:08.066Z,7.12
2019-01-10T09:38:36.321Z,6.42
2019-01-10T09:41:04.580Z,6.95
2019-01-10T09:43:32.836Z,6.37
2019-01-10T09:46:01.102Z,5.47
2019-01-10T09:48:29.369Z,5.27
2019-01-10T09:50:57.635Z,5.90
2019-01-10T09:53:25.939Z,6.57
2019-01-10T09:55:54.166Z,6.47
2019-01-10T09:58:22.418Z,6.92
2019-01-10T10:00:50.764Z,5.80
2019-01-10T10:03:18.950Z,5.73
2019-01-10T10:05:47.206Z,4.73
2019-01-10T10:08:15.451Z,5.27
2019-01-10T10:10:43.703Z,5.70
2019-01-10T10:13:11.971Z,5.90
2019-01-10T10:15:40.348Z,5.60
2019-01-10T10:18:08.611Z,5.80
2019-01-10T10:20:36.867Z,4.97
2019-01-10T10:23:05.188Z,5.97
2019-01-10T10:25:33.446Z,4.77
2019-01-10T10:28:01.704Z,4.97
2019-01-10T10:30:29.955Z,5.50
2019-01-10T10:32:58.225Z,4.70
2019-01-10T10:36:00.376Z,5.05
2019-01-10T10:38:28.627Z,4.42
2019-01-10T10:40:56.898Z,5.17
2019-01-10T10:43:25.143Z,5.10
2019-01-10T10:46:01.231Z,3.75
2019-01-10T10:48:23.378Z,3.33
2019-01-10T10:50:51.636Z,3.63
2019-01-10T10:53:19.907Z,2.97
2019-01-10T10:55:48.177Z,2.98
2019-01-10T10:58:35.775Z,2.87
2019-01-10T11:01:04.014Z,2.90
2019-01-10T11:03:32.270Z,3.57
2019-01-10T11:06:00.541Z,3.73
2019-01-10T11:08:28.790Z,2.90
2019-01-10T11:10:57.057Z,2.80
2019-01-10T11:13:25.318Z,2.23
2019-01-10T11:15:53.594Z,3.10
2019-01-10T11:18:21.849Z,3.17
2019-01-10T11:20:50.119Z,2.90
2019-01-10T11:23:18.386Z,3.50
2019-01-10T11:25:46.647Z,3.60
2019-01-10T11:28:14.894Z,3.33
2019-01-10T11:30:43.164Z,2.97
2019-01-10T11:33:11.425Z,3.10
2019-01-10T11:35:39.712Z,3.30
2019-01-10T11:38:07.978Z,2.90
2019-01-10T11:40:36.247Z,3.80
2019-01-10T11:43:04.499Z,3.70
2019-01-10T11:45:32.763Z,4.00
2019-01-10T11:48:01.003Z,4.00
2019-01-10T11:50:29.256Z,4.47
2019-01-10T11:52:57.540Z,3.83
2019-01-10T11:55:25.783Z,4.73
2019-01-10T11:57:54.028Z,3.73
2019-01-10T12:01:02.302Z,3.40
2019-01-10T12:03:31.359Z,3.67
2019-01-10T12:05:59.605Z,4.13
2019-01-10T12:08:27.884Z,4.53
2019-01-10T12:10:56.128Z,4.67
2019-01-10T12:13:24.406Z,3.37
2019-01-10T12:15:52.665Z,4.25
2019-01-10T12:18:20.963Z,5.28
2019-01-10T12:20:49.252Z,4.33
2019-01-10T12:23:17.518Z,5.00
2019-01-10T12:25:45.785Z,3.67
2019-01-10T12:28:14.048Z,4.43
2019-01-10T12:30:42.344Z,3.63
2019-01-10T12:33:10.593Z,4.03
2019-01-10T12:35:38.850Z,4.67
2019-01-10T12:38:07.098Z,4.42
2019-01-10T12:40:35.366Z,5.87
2019-01-10T12:43:03.619Z,3.67
2019-01-10T12:45:31.925Z,3.60
2019-01-10T12:48:01.655Z,5.40
2019-01-10T12:50:30.298Z,3.83
2019-01-10T12:52:58.553Z,3.63
2019-01-10T12:55:26.803Z,3.95
2019-01-10T12:57:55.078Z,3.60
2019-01-10T13:00:57.141Z,4.50
2019-01-10T13:03:25.440Z,4.40
2019-01-10T13:05:53.690Z,3.13
2019-01-10T13:08:21.943Z,4.03
2019-01-10T13:10:50.216Z,4.00
2019-01-10T13:13:18.461Z,3.63
2019-01-10T13:15:46.712Z,3.13
2019-01-10T13:18:14.990Z,4.42
2019-01-10T13:20:43.249Z,3.90
2019-01-10T13:23:11.516Z,4.43
2019-01-10T13:25:39.756Z,4.47
2019-01-10T13:28:08.013Z,3.83
2019-01-10T13:30:36.265Z,3.90
2019-01-10T13:33:04.660Z,3.20
2019-01-10T13:35:32.992Z,3.75
2019-01-10T13:38:01.247Z,4.20
2019-01-10T13:40:29.549Z,4.28
2019-01-10T13:42:57.816Z,5.22
2019-01-10T13:45:26.178Z,3.80
2019-01-10T13:47:54.556Z,4.30
2019-01-10T13:51:02.836Z,3.77
2019-01-10T13:53:31.078Z,5.08
2019-01-10T13:55:59.375Z,2.57
2019-01-10T13:58:27.619Z,3.30
2019-01-10T14:00:55.886Z,2.57
2019-01-10T14:03:24.147Z,3.13
2019-01-10T14:05:52.453Z,3.60
2019-01-10T14:08:20.720Z,4.30
2019-01-10T14:10:49.016Z,3.83
2019-01-10T14:13:17.273Z,3.50
2019-01-10T14:15:45.521Z,4.50
2019-01-10T14:18:13.816Z,3.83
2019-01-10T14:20:42.057Z,3.17
2019-01-10T14:23:10.316Z,2.97
2019-01-10T14:25:38.580Z,4.07
2019-01-10T14:28:06.835Z,4.05
2019-01-10T14:31:15.129Z,3.77
2019-01-10T14:33:43.451Z,4.13
2019-01-10T14:36:11.694Z,4.58
2019-01-10T14:38:39.934Z,3.30
2019-01-10T14:41:08.195Z,3.63
2019-01-10T14:43:36.445Z,3.50
2019-01-10T14:46:04.693Z,4.67
2019-01-10T14:48:32.958Z,3.77
2019-01-10T14:51:01.250Z,6.30
2019-01-10T14:53:29.483Z,3.80
2019-01-10T14:55:57.731Z,4.77
2019-01-10T14:58:25.992Z,4.07
2019-01-10T15:00:54.314Z,3.70
2019-01-10T15:03:22.570Z,4.43
2019-01-10T15:05:50.832Z,5.72
2019-01-10T15:08:19.098Z,5.20
2019-01-10T15:10:47.364Z,5.10
2019-01-10T15:13:15.642Z,5.90
2019-01-10T15:15:43.888Z,4.80
2019-01-10T15:18:12.130Z,5.03
2019-01-10T15:20:40.395Z,4.30
2019-01-10T15:23:08.658Z,4.72
2019-01-10T15:25:36.933Z,4.60
2019-01-10T15:28:05.191Z,4.50
2019-01-10T15:30:33.463Z,5.50
2019-01-10T15:33:01.730Z,5.60
2019-01-10T15:35:29.991Z,5.30
2019-01-10T15:37:58.261Z,5.03
2019-01-10T15:40:45.848Z,5.17
2019-01-10T15:43:14.103Z,5.13
2019-01-10T15:45:42.344Z,5.12
2019-01-10T15:48:10.591Z,5.63
2019-01-10T15:50:38.863Z,4.90
2019-01-10T15:53:07.121Z,5.28
2019-01-10T15:55:35.383Z,6.83
2019-01-10T15:58:03.656Z,7.23
2019-01-10T16:00:31.929Z,7.20
2019-01-10T16:03:00.208Z,6.00
2019-01-10T16:05:28.492Z,6.70
2019-01-10T16:07:56.771Z,6.70
2019-01-10T16:10:25.004Z,5.97
2019-01-10T16:12:53.258Z,6.72
2019-01-10T16:16:01.598Z,7.40
2019-01-10T16:18:29.898Z,7.33
2019-01-10T16:20:58.176Z,7.70
2019-01-10T16:23:26.427Z,6.90
2019-01-10T16:25:54.708Z,7.80
2019-01-10T16:28:22.973Z,9.07
2019-01-10T16:30:51.218Z,8.60
2019-01-10T16:33:19.467Z,8.97
2019-01-10T16:35:47.742Z,9.60
2019-01-10T16:38:16.007Z,9.70
2019-01-10T16:40:44.262Z,9.57
2019-01-10T16:43:12.554Z,11.00
2019-01-10T16:45:40.801Z,11.70
2019-01-10T16:48:09.081Z,11.18
2019-01-10T16:50:37.353Z,11.33
2019-01-10T16:53:05.692Z,11.43
2019-01-10T16:55:34.167Z,13.17
2019-01-10T16:58:04.237Z,10.60
2019-01-10T17:00:32.681Z,9.73
2019-01-10T17:03:00.933Z,10.30
2019-01-10T17:05:29.197Z,9.90
2019-01-10T17:07:57.454Z,10.10
2019-01-10T17:10:25.715Z,11.23
2019-01-10T17:12:53.993Z,10.17
2019-01-10T17:15:22.255Z,10.65
2019-01-10T17:17:50.534Z,12.10
2019-01-10T17:20:58.822Z,21.77
2019-01-10T17:23:27.097Z,14.90
2019-01-10T17:25:55.400Z,15.40
2019-01-10T17:28:23.679Z,12.50
2019-01-10T17:30:51.914Z,19.37
2019-01-10T17:33:20.184Z,10.80
2019-01-10T17:35:48.440Z,8.93
2019-01-10T17:38:16.712Z,9.88
2019-01-10T17:40:45.000Z,8.50
2019-01-10T17:45:52.243Z,8.27
2019-01-10T17:48:20.522Z,25.20
2019-01-10T17:50:48.771Z,32.70
2019-01-10T17:53:17.056Z,17.93
2019-01-10T17:55:45.328Z,13.13
2019-01-10T17:58:13.596Z,7.83
2019-01-10T18:00:41.958Z,65.00
2019-01-10T18:03:10.149Z,8.20
2019-01-10T18:05:39.890Z,6.97
2019-01-10T18:08:08.484Z,6.03
2019-01-10T18:10:36.730Z,7.47
2019-01-10T18:13:04.986Z,6.60
2019-01-10T18:15:33.235Z,7.55
2019-01-10T18:18:01.495Z,8.73
2019-01-10T18:20:49.110Z,7.07
2019-01-10T18:23:17.410Z,7.08
2019-01-10T18:25:45.677Z,7.30
2019-01-10T18:28:13.941Z,6.97
2019-01-10T18:30:43.496Z,7.15
2019-01-10T18:36:12.053Z,6.95
2019-01-10T18:38:40.346Z,5.97
2019-01-10T18:50:49.783Z,9.10
2019-01-10T18:56:29.453Z,11.63
2019-01-10T18:58:57.727Z,8.87
2019-01-10T19:01:26.005Z,9.10
2019-01-10T19:04:13.642Z,10.87
2019-01-10T19:06:41.913Z,9.00
2019-01-10T19:09:10.554Z,12.63
2019-01-10T19:11:39.158Z,8.98
2019-01-10T19:14:07.409Z,9.93
2019-01-10T19:16:35.668Z,10.05
2019-01-10T19:19:03.986Z,9.78
2019-01-10T19:22:09.887Z,10.13
2019-01-10T19:24:38.186Z,10.13
2019-01-10T19:27:06.455Z,10.67
2019-01-10T19:29:35.156Z,9.50
2019-01-10T19:32:03.548Z,10.00
2019-01-10T19:35:11.889Z,10.80
2019-01-10T19:37:40.209Z,10.48
2019-01-10T19:43:01.914Z,11.20
2019-01-10T19:45:30.842Z,12.75
2019-01-10T19:47:59.134Z,11.93
2019-01-10T19:51:01.223Z,13.20
2019-01-10T19:53:29.508Z,11.20
2019-01-10T19:55:57.774Z,12.70
2019-01-10T19:58:26.097Z,12.00
2019-01-10T20:00:54.395Z,11.95
2019-01-10T20:03:22.769Z,11.93
2019-01-10T20:05:51.041Z,14.10
2019-01-10T20:08:19.344Z,14.30
2019-01-10T20:10:47.609Z,15.90
2019-01-10T20:13:55.960Z,13.68
2019-01-10T20:16:24.224Z,15.40
2019-01-10T20:19:11.852Z,14.77
2019-01-10T20:21:40.101Z,14.97
2019-01-10T20:24:08.381Z,16.43
2019-01-10T20:26:36.672Z,16.42
2019-01-10T20:29:04.944Z,15.25
2019-01-10T20:31:33.226Z,14.30
2019-01-10T20:34:01.507Z,15.07
2019-01-10T20:36:29.785Z,14.10
2019-01-10T20:38:58.084Z,14.75
2019-01-10T20:41:26.380Z,15.53
2019-01-10T20:43:54.647Z,15.00
2019-01-10T20:46:22.992Z,15.43
2019-01-10T20:48:53.346Z,15.43
2019-01-10T20:51:21.719Z,15.40
2019-01-10T20:53:50.037Z,18.30
2019-01-10T20:56:18.136Z,17.75
2019-01-10T20:58:46.450Z,17.48
2019-01-10T21:01:14.774Z,18.13
2019-01-10T21:03:43.046Z,19.07
2019-01-10T21:06:11.419Z,17.63
2019-01-10T21:08:39.781Z,20.15
2019-01-10T21:11:08.166Z,19.20
2019-01-10T21:13:36.433Z,17.87
2019-01-10T21:16:04.775Z,18.67
2019-01-10T21:18:33.051Z,20.83
2019-01-10T21:21:01.343Z,20.97
2019-01-10T21:23:29.608Z,20.55
2019-01-10T21:25:57.894Z,19.83
2019-01-10T21:28:26.228Z,20.37
2019-01-10T21:30:54.518Z,19.20
2019-01-10T21:33:22.812Z,19.93
2019-01-10T21:35:51.092Z,19.30
2019-01-10T21:38:19.383Z,18.10
2019-01-10T21:40:47.674Z,17.07
2019-01-10T21:43:15.970Z,19.47
2019-01-10T21:45:44.250Z,16.50
2019-01-10T21:48:12.540Z,17.33
2019-01-10T21:50:40.832Z,16.55
2019-01-10T21:53:09.111Z,16.97
2019-01-10T21:55:37.440Z,15.60
2019-01-10T21:58:05.737Z,17.00
2019-01-10T22:00:34.044Z,16.20
2019-01-10T22:03:36.361Z,15.73
2019-01-10T22:06:04.848Z,16.60
2019-01-10T22:08:33.114Z,15.50
2019-01-10T22:11:02.205Z,13.77
2019-01-10T22:13:31.405Z,14.27
2019-01-10T22:15:59.673Z,12.50
2019-01-10T22:18:27.946Z,13.53
2019-01-10T22:20:56.223Z,12.77
2019-01-10T22:23:24.597Z,11.60
2019-01-10T22:25:52.875Z,13.50
2019-01-10T22:28:21.134Z,12.93
2019-01-10T22:30:49.424Z,13.17
2019-01-10T22:33:17.698Z,12.97
2019-01-10T22:35:45.970Z,11.57
2019-01-10T22:38:14.239Z,12.87
2019-01-10T22:40:42.513Z,12.63
2019-01-10T22:43:10.838Z,14.15
2019-01-10T22:45:39.109Z,14.50
2019-01-10T22:48:07.383Z,14.70
2019-01-10T22:50:35.670Z,14.73
2019-01-10T22:53:23.279Z,15.50
2019-01-10T22:55:51.576Z,16.20
2019-01-10T22:58:19.856Z,14.97
2019-01-10T23:01:28.177Z,15.40
2019-01-10T23:03:56.563Z,19.12
2019-01-10T23:06:24.827Z,16.15
2019-01-10T23:08:53.101Z,17.65
2019-01-10T23:11:21.523Z,19.65
2019-01-10T23:14:09.118Z,20.00
2019-01-10T23:16:37.475Z,19.80
2019-01-10T23:19:05.935Z,19.60
2019-01-10T23:21:34.202Z,18.60
2019-01-10T23:24:02.731Z,18.03
2019-01-10T23:26:31.017Z,19.77
2019-01-10T23:28:59.318Z,19.40
2019-01-10T23:34:39.695Z,17.80
2019-01-10T23:37:07.967Z,17.23
2019-01-10T23:39:36.250Z,20.00
2019-01-10T23:42:04.519Z,20.77
2019-01-10T23:44:32.796Z,21.60
2019-01-10T23:47:01.066Z,19.80
2019-01-10T23:49:29.357Z,20.90
2019-01-10T23:51:57.629Z,22.00
2019-01-10T23:54:25.912Z,21.40
2019-01-10T23:56:54.198Z,20.70
2019-01-10T23:59:22.455Z,24.35
